• Join FlightAware (Why Join?)
  • Login
  • US Flag 
07:37AM EDT


 

Airport Tracker/Info


-or-


 

Live Flight TrackerFlight Track Log ✈ UAL139 ✈ 14-Oct-2013 ✈ KDEN - RJAA / NRT

Flight Track Log - Related Links

Times and Time Zones

All times are in EDT time to prevent confusion due to time zone crossing. See the UAL139 flight status page for this flight to view local times or setup timezone preferences in your user account.

Time Position Orientation Groundspeed Altitude Reporting Facility
EDT Latitude Longitude Course Direction KTS MPH feet Rate Location/Type
03:37PM 39.8680 -104.6960 285° West 150 173 5,300  Level FlightAware
03:37PM 39.8860 -104.6960 360° North 194 223 5,600 1,320 Climbing FlightAware
03:37PM 39.8950 -104.6960 360° North 193 222 6,000 2,400 Climbing FlightAware
03:37PM 39.9068 -104.6959 360° North 194 223 6,600 2,400 Climbing FlightAware ADS-B (KEIK)
03:38PM 39.9350 -104.7010 352° North 195 224 7,800 1,680 Climbing FlightAware
03:38PM 39.9550 -104.7070 347° North 224 258 8,000 780 Climbing FlightAware
03:39PM 39.9720 -104.7120 347° North 243 280 8,300 1,500 Climbing FlightAware
03:39PM 39.9950 -104.7180 349° North 259 298 8,900 1,680 Climbing FlightAware
03:39PM 40.0100 -104.7220 348° North 271 312 9,200 1,860 Climbing FlightAware
03:40PM 40.0618 -104.7386 346° North 290 334 10,600 1,560 Climbing FlightAware ADS-B (KEIK)
03:40PM 40.0919 -104.7529 340° North 322 371 11,100 1,620 Climbing FlightAware ADS-B (KEIK)
03:41PM 40.1486 -104.7791 341° North 335 386 12,300 2,400 Climbing FlightAware ADS-B (KEIK)
03:41PM 40.1829 -104.7953 340° North 337 388 13,600 2,400 Climbing FlightAware ADS-B (KEIK)
03:42PM 40.2388 -104.8214 340° North 346 398 14,800 1,440 Climbing FlightAware ADS-B (KEIK)
03:42PM 40.2989 -104.8495 340° North 379 436 15,300 720 Climbing FlightAware ADS-B (KEIK)
03:43PM 40.3492 -104.8730 340° North 402 463 15,700 1,320 Climbing FlightAware ADS-B (KEIK)
03:44PM 40.4132 -104.9028 340° North 413 475 16,800 1,800 Climbing FlightAware ADS-B (KEIK)
03:44PM 40.4797 -104.9338 341° North 420 483 17,800 1,680 Climbing FlightAware ADS-B (KEIK)
03:45PM 40.5367 -104.9606 340° North 428 493 18,700 1,620 Climbing FlightAware ADS-B (KEIK)
03:45PM 40.5913 -104.9861 340° North 437 503 19,500 1,440 Climbing FlightAware ADS-B (KEIK)
03:46PM 40.6499 -105.0138 340° North 445 512 20,200 1,440 Climbing FlightAware ADS-B (KEIK)
03:46PM 40.7132 -105.0436 340° North 451 519 21,000 1,500 Climbing FlightAware ADS-B (KEIK)
03:47PM 40.7664 -105.0760 335° Northwest 454 522 21,700 1,500 Climbing FlightAware ADS-B (KEIK)
03:47PM 40.8444 -105.1578 322° Northwest 461 531 23,000 1,380 Climbing FlightAware ADS-B (KEIK)
03:48PM 40.9180 -105.2410 320° Northwest 469 540 23,900 1,200 Climbing FlightAware ADS-B (KEIK)
03:49PM 40.9691 -105.2989 319° Northwest 477 549 24,600 1,140 Climbing FlightAware ADS-B (KEIK)
03:49PM 41.0244 -105.3619 319° Northwest 482 555 25,200 1,140 Climbing FlightAware ADS-B (KEIK)
03:50PM 41.0814 -105.4268 319° Northwest 487 560 25,800 840 Climbing FlightAware ADS-B (KEIK)
03:51PM 41.1720 -105.5290 320° Northwest 502 578 26,400 720 Climbing FlightAware
03:51PM 41.2255 -105.5913 319° Northwest 510 587 26,800 900 Climbing FlightAware ADS-B (KEIK)
03:52PM 41.2830 -105.6580 319° Northwest 514 592 27,400 1,440 Climbing FlightAware
03:52PM 41.3051 -105.6837 319° Northwest 512 589 27,900 1,380 Climbing FlightAware ADS-B (KEIK)
03:53PM 41.3673 -105.7746 312° West 510 587 28,600 1,200 Climbing FlightAware ADS-B (KEIK)
03:54PM 41.4490 -105.9230 306° West 507 583 29,900 1,260 Climbing FlightAware
03:54PM 41.4990 -106.0130 307° West 507 583 30,600 1,380 Climbing FlightAware
03:55PM 41.5440 -106.0950 306° West 501 577 31,500 1,200 Climbing FlightAware
03:55PM 41.5940 -106.1870 306° West 478 550 32,000 420 Climbing FlightAware
03:56PM 41.6370 -106.2650 306° West 483 556 32,000  Level FlightAware
03:56PM 41.6790 -106.3430 306° West 484 557 32,000 60 Level FlightAware
03:57PM 41.7290 -106.4350 306° West 488 562 32,100 240 Climbing FlightAware
03:58PM 41.7710 -106.5140 306° West 488 562 32,300 120 Climbing FlightAware
03:58PM 41.8090 -106.5880 305° West 488 562 32,300  Level FlightAware
03:59PM 41.8490 -106.6640 305° West 488 562 32,300  Level FlightAware
03:59PM 41.8900 -106.7420 305° West 488 562 32,300  Level FlightAware
04:00PM 41.9290 -106.8180 305° West 488 562 32,300  Level FlightAware
04:01PM 41.9700 -106.8960 305° West 488 562 32,300  Level FlightAware
04:01PM 42.0090 -106.9700 305° West 488 562 32,300  Level FlightAware
04:02PM 42.0480 -107.0460 305° West 488 562 32,300  Level FlightAware
04:02PM 42.0880 -107.1230 305° West 488 562 32,300  Level FlightAware
04:03PM 42.1280 -107.2010 305° West 488 562 32,300  Level FlightAware
04:04PM 42.1680 -107.2770 305° West 488 562 32,300  Level FlightAware
04:04PM 42.2080 -107.3540 305° West 488 562 32,300  Level FlightAware
04:05PM 42.2470 -107.4300 305° West 488 562 32,300  Level FlightAware
04:05PM 42.2870 -107.5070 305° West 488 562 32,300  Level FlightAware
04:06PM 42.3270 -107.5830 305° West 488 562 32,300  Level FlightAware
04:07PM 42.3670 -107.6620 304° West 488 562 32,300 1,740 Level FlightAware
04:08PM 42.5906 -108.0722 304° West 479 551 36,000 1,440 Climbing Salt Lake Center
04:09PM 42.6636 -108.2144 305° West 481 554 36,000  Level Salt Lake Center
04:10PM 42.7356 -108.3558 305° West 479 551 36,000  Level Salt Lake Center
04:11PM 42.8192 -108.5206 305° West 475 547 36,000  Level Salt Lake Center
04:12PM 42.8911 -108.6653 304° West 480 552 36,000  Level Salt Lake Center
04:13PM 42.9750 -108.8314 305° West 478 550 36,000  Level Salt Lake Center
04:14PM 43.0489 -108.9806 304° West 476 548 36,000  Level Salt Lake Center
04:15PM 43.1233 -109.1300 304° West 476 548 36,000  Level Salt Lake Center
04:16PM 43.1964 -109.2794 304° West 474 545 36,000  Level Salt Lake Center
04:17PM 43.2711 -109.4322 304° West 481 554 36,000  Level Salt Lake Center
04:18PM 43.3411 -109.5814 303° West 469 540 36,000  Level Salt Lake Center
04:19PM 43.4058 -109.7381 300° West 470 541 36,000  Level Salt Lake Center
04:21PM 43.4828 -109.9194 300° West 473 544 36,000  Level Salt Lake Center
04:22PM 43.5494 -110.0758 301° West 472 543 36,000  Level Salt Lake Center
04:23PM 43.6122 -110.2272 300° West 475 547 36,000  Level Salt Lake Center
04:24PM 43.6847 -110.4056 299° West 476 548 36,000  Level Salt Lake Center
04:25PM 43.7481 -110.5594 300° West 479 551 36,000  Level Salt Lake Center
04:26PM 43.8211 -110.7394 299° West 480 552 36,000  Level Salt Lake Center
04:27PM 43.8839 -110.8928 300° West 478 550 36,000  Level Salt Lake Center
04:28PM 43.9456 -111.0489 299° West 481 554 36,000  Level Salt Lake Center
04:33PM 44.3010 -111.9490 299° West 471 542 36,000  Level FlightAware
04:34PM 44.3290 -112.0210 299° West 471 542 36,000  Level FlightAware
04:34PM 44.3590 -112.0990 298° West 471 542 36,000  Level FlightAware
04:35PM 44.3890 -112.1790 298° West 471 542 36,000  Level FlightAware
04:35PM 44.4200 -112.2610 298° West 471 542 36,000  Level FlightAware
04:36PM 44.4510 -112.3410 299° West 471 542 36,000  Level FlightAware
04:37PM 44.4830 -112.4260 298° West 471 542 36,000  Level FlightAware
04:37PM 44.5150 -112.5110 298° West 471 542 36,000  Level FlightAware
04:38PM 44.5450 -112.5890 298° West 471 542 36,000  Level FlightAware
04:38PM 44.5770 -112.6740 298° West 471 542 36,000  Level FlightAware
04:39PM 44.6080 -112.7570 298° West 471 542 36,000  Level FlightAware
04:40PM 44.6400 -112.8420 298° West 471 542 36,000  Level FlightAware
04:40PM 44.6710 -112.9240 298° West 471 542 36,000  Level FlightAware
04:41PM 44.7040 -113.0100 298° West 471 542 36,000  Level FlightAware
04:41PM 44.7350 -113.0920 298° West 471 542 36,000  Level FlightAware
04:42PM 44.8510 -113.4010 298° West 474 545 36,000  Level FlightAware
04:43PM 44.8850 -113.4920 298° West 472 543 36,000  Level FlightAware
04:44PM 44.9310 -113.6180 297° West 472 543 36,000  Level FlightAware
04:44PM 44.9610 -113.7030 297° West 472 543 36,000  Level FlightAware
04:45PM 44.9930 -113.7910 297° West 472 543 36,000  Level FlightAware
04:45PM 45.0230 -113.8730 297° West 472 543 36,000  Level FlightAware
04:46PM 45.0520 -113.9550 297° West 472 543 36,000  Level FlightAware
04:47PM 45.0830 -114.0420 297° West 472 543 36,000  Level FlightAware
04:47PM 45.1140 -114.1260 298° West 472 543 36,000  Level FlightAware
04:48PM 45.1440 -114.2110 297° West 472 543 36,000  Level FlightAware
04:48PM 45.1750 -114.2970 297° West 472 543 36,000  Level FlightAware
04:49PM 45.2140 -114.4050 297° West 472 543 36,000  Level FlightAware
04:50PM 45.2460 -114.4950 297° West 472 543 36,000  Level FlightAware
04:50PM 45.2760 -114.5790 297° West 472 543 36,000  Level FlightAware
04:51PM 45.3060 -114.6640 297° West 472 543 36,000  Level FlightAware
04:52PM 45.3370 -114.7490 297° West 472 543 36,000  Level FlightAware
04:52PM 45.3670 -114.8330 297° West 472 543 36,000  Level FlightAware
04:53PM 45.3970 -114.9180 297° West 472 543 36,000  Level FlightAware
04:54PM 45.5230 -115.2880 296° West 470 541 36,000  Level FlightAware
04:54PM 45.5550 -115.3810 296° West 469 540 36,000  Level FlightAware
04:55PM 45.5900 -115.4820 296° West 469 540 36,000  Level FlightAware
04:55PM 45.6200 -115.5710 296° West 469 540 36,000  Level FlightAware
04:56PM 45.6520 -115.6650 296° West 467 537 36,000  Level FlightAware
04:56PM 45.6900 -115.7770 296° West 466 536 36,000  Level FlightAware
04:57PM 45.7210 -115.8700 296° West 467 537 36,000  Level FlightAware
04:58PM 45.7530 -115.9650 296° West 467 537 36,000  Level FlightAware
04:58PM 45.7870 -116.0660 296° West 468 539 36,000  Level FlightAware
04:59PM 45.8170 -116.1570 295° West 469 540 36,000  Level FlightAware
04:59PM 45.8520 -116.2610 296° West 470 541 36,000  Level FlightAware
05:00PM 45.8860 -116.3640 295° West 468 539 36,000  Level FlightAware
05:01PM 45.9140 -116.4510 295° West 466 536 36,000  Level FlightAware
05:01PM 45.9490 -116.5580 295° West 466 536 36,000  Level FlightAware
05:02PM 45.9800 -116.6520 295° West 467 537 36,000  Level FlightAware
05:02PM 46.0130 -116.7540 295° West 464 534 36,000  Level FlightAware
05:03PM 46.0410 -116.8400 295° West 463 533 36,000  Level FlightAware
05:04PM 46.0790 -116.9610 294° West 463 533 36,000  Level FlightAware
05:04PM 46.1060 -117.0470 294° West 463 533 36,000  Level FlightAware
05:05PM 46.1330 -117.1330 294° West 463 533 36,000  Level FlightAware
05:06PM 46.1670 -117.2440 294° West 463 533 36,000  Level FlightAware
05:06PM 46.1930 -117.3300 294° West 463 533 36,000  Level FlightAware
05:07PM 46.2200 -117.4170 294° West 463 533 36,000  Level FlightAware
05:07PM 46.2480 -117.5060 294° West 463 533 36,000  Level FlightAware
05:08PM 46.2740 -117.5920 294° West 463 533 36,000  Level FlightAware
05:09PM 46.3020 -117.6840 294° West 463 533 36,000  Level FlightAware
05:09PM 46.3270 -117.7660 294° West 463 533 36,000  Level FlightAware
05:10PM 46.3550 -117.8550 295° West 463 533 36,000  Level FlightAware
05:10PM 46.3820 -117.9440 294° West 463 533 36,000  Level FlightAware
05:11PM 46.4110 -118.0380 294° West 463 533 36,000  Level FlightAware
05:12PM 46.4380 -118.1280 294° West 463 533 36,000  Level FlightAware
05:12PM 46.4650 -118.2140 295° West 463 533 36,000  Level FlightAware
05:13PM 46.4930 -118.3040 294° West 463 533 36,000  Level FlightAware
05:16PM 46.7430 -119.0160 297° West 475 547 36,000  Level FlightAware
05:16PM 46.7717 -119.1090 294° West 477 549 36,000  Level FlightAware ADS-B
05:17PM 46.8026 -119.2090 294° West 475 547 36,000  Level FlightAware ADS-B
05:17PM 46.8297 -119.2970 294° West 474 545 36,000  Level FlightAware ADS-B
05:18PM 46.8568 -119.3850 294° West 475 547 36,000  Level FlightAware ADS-B
05:18PM 46.8842 -119.4750 294° West 477 549 36,000  Level FlightAware ADS-B
05:19PM 46.9122 -119.5660 294° West 479 551 36,000  Level FlightAware ADS-B
05:19PM 46.9393 -119.6560 294° West 480 552 36,000  Level FlightAware ADS-B
05:20PM 46.9666 -119.7460 294° West 480 552 36,000  Level FlightAware ADS-B
05:20PM 47.0010 -119.8610 294° West 480 552 36,000  Level FlightAware ADS-B
05:21PM 47.0277 -119.9490 294° West 479 551 36,000  Level FlightAware ADS-B
05:21PM 47.0551 -120.0410 294° West 479 551 36,000  Level FlightAware ADS-B
05:22PM 47.0821 -120.1320 294° West 478 550 36,000  Level FlightAware ADS-B
05:22PM 47.1094 -120.2240 294° West 477 549 36,000  Level FlightAware ADS-B
05:23PM 47.1363 -120.3150 294° West 479 551 36,000  Level FlightAware ADS-B
05:24PM 47.1628 -120.4050 293° West 479 551 36,000  Level FlightAware ADS-B
05:24PM 47.1846 -120.4791 293° West 476 548 36,000  Level FlightAware ADS-B (CYWH)
05:24PM 47.1891 -120.4950 293° West 478 550 36,000  Level FlightAware ADS-B
05:25PM 47.2154 -120.5850 293° West 478 550 36,000  Level FlightAware ADS-B
05:25PM 47.2418 -120.6750 293° West 477 549 36,000  Level FlightAware ADS-B
05:26PM 47.2681 -120.7660 293° West 477 549 36,000  Level FlightAware ADS-B
05:26PM 47.2944 -120.8570 293° West 475 547 36,000  Level FlightAware ADS-B
05:27PM 47.3205 -120.9480 293° West 473 544 36,000  Level FlightAware ADS-B
05:27PM 47.3461 -121.0370 293° West 470 541 36,000  Level FlightAware ADS-B
05:27PM 47.3600 -121.0850 293° West 469 540 36,000  Level FlightAware ADS-B (FAKM / KIM)
05:28PM 47.3734 -121.1320 293° West 469 540 36,000  Level FlightAware ADS-B
05:28PM 47.3986 -121.2210 293° West 468 539 36,000  Level FlightAware ADS-B
05:28PM 47.4063 -121.2478 293° West 468 539 36,000  Level FlightAware ADS-B (FAKM / KIM)
05:29PM 47.4240 -121.3100 293° West 468 539 36,000  Level FlightAware ADS-B
05:29PM 47.4489 -121.3980 293° West 467 537 36,000  Level FlightAware ADS-B
05:29PM 47.4484 -121.3965 117° Southeast 467 537 36,000  Level FlightAware ADS-B (FAKM / KIM)
05:30PM 47.4738 -121.4870 293° West 467 537 36,000  Level FlightAware ADS-B
05:30PM 47.4763 -121.4957 293° West 467 537 36,000  Level FlightAware ADS-B (FAKM / KIM)
05:30PM 47.5001 -121.5800 293° West 468 539 36,000  Level FlightAware ADS-B
05:30PM 47.5062 -121.6023 292° West 469 540 36,000  Level FlightAware ADS-B (FAKM / KIM)
05:31PM 47.5250 -121.6700 292° West 469 540 36,000  Level FlightAware ADS-B
05:31PM 47.5563 -121.7820 293° West 469 540 36,000  Level FlightAware ADS-B
05:31PM 47.5662 -121.8177 292° West 470 541 36,000  Level FlightAware ADS-B (FAKM / KIM)
05:32PM 47.5810 -121.8710 292° West 471 542 36,000  Level FlightAware ADS-B
05:32PM 47.5820 -121.8747 292° West 471 542 36,000  Level FlightAware ADS-B (FAKM / KIM)
05:32PM 47.6059 -121.9610 292° West 472 543 36,000  Level FlightAware ADS-B
05:33PM 47.6190 -122.0089 292° West 472 543 36,000  Level FlightAware ADS-B (CYWH)
05:33PM 47.6310 -122.0530 292° West 473 544 36,000  Level FlightAware ADS-B
05:33PM 47.6453 -122.1046 292° West 472 543 36,000  Level FlightAware ADS-B (FAKM / KIM)
05:33PM 47.6558 -122.1430 292° West 472 543 36,000  Level FlightAware ADS-B
05:34PM 47.6700 -122.1950 292° West 472 543 36,000  Level FlightAware ADS-B (FAKM / KIM)
05:34PM 47.6809 -122.2350 292° West 472 543 36,000  Level FlightAware ADS-B
05:34PM 47.6990 -122.3016 292° West 473 544 36,000  Level FlightAware ADS-B (CYWH)
05:34PM 47.7055 -122.3260 292° West 473 544 36,000  Level FlightAware ADS-B
05:35PM 47.7300 -122.4160 292° West 473 544 36,000  Level FlightAware ADS-B
05:35PM 47.7545 -122.5070 292° West 474 545 36,000  Level FlightAware ADS-B
05:36PM 47.7789 -122.5980 292° West 474 545 36,000  Level FlightAware ADS-B
05:36PM 47.7780 -122.5941 109° East 475 547 36,000  Level FlightAware ADS-B (FAKM / KIM)
05:36PM 47.8034 -122.6890 292° West 474 545 36,000  Level FlightAware ADS-B
05:36PM 47.8060 -122.6987 292° West 475 547 36,000  Level FlightAware ADS-B (CYWH)
05:37PM 47.8279 -122.7810 292° West 474 545 36,000  Level FlightAware ADS-B
05:37PM 47.8304 -122.7906 291° West 471 542 36,000  Level FlightAware ADS-B (CYWH)
05:37PM 47.8522 -122.8720 292° West 474 545 36,000  Level FlightAware ADS-B
05:37PM 47.8563 -122.8881 291° West 471 542 36,000  Level FlightAware ADS-B (CYWH)
05:38PM 47.8767 -122.9650 292° West 475 547 36,000  Level FlightAware ADS-B
05:38PM 47.8808 -122.9809 291° West 472 543 36,000  Level FlightAware ADS-B (CYWH)
05:38PM 47.9010 -123.0580 291° West 477 549 36,000  Level FlightAware ADS-B
05:38PM 47.9084 -123.0857 292° West 478 550 36,000  Level FlightAware ADS-B (FAKM / KIM)
05:39PM 47.9258 -123.1520 291° West 478 550 36,000  Level FlightAware ADS-B
05:39PM 47.9319 -123.1750 291° West 478 550 36,000  Level FlightAware ADS-B (FAKM / KIM)
05:39PM 47.9501 -123.2450 291° West 477 549 36,000  Level FlightAware ADS-B
05:39PM 47.9563 -123.2685 291° West 476 548 36,000  Level FlightAware ADS-B (FAKM / KIM)
05:40PM 47.9691 -123.3180 291° West 475 547 36,000  Level FlightAware ADS-B (FAKM / KIM)
05:40PM 47.9742 -123.3380 291° West 475 547 36,000  Level FlightAware ADS-B
05:40PM 47.9787 -123.3546 292° West 475 547 36,000  Level FlightAware ADS-B (FAKM / KIM)
05:40PM 47.9862 -123.3839 291° West 475 547 36,000  Level FlightAware ADS-B (FAKM / KIM)
05:40PM 47.9955 -123.4198 291° West 472 543 36,000  Level FlightAware ADS-B (CYWH)
05:40PM 47.9981 -123.4300 291° West 475 547 36,000  Level FlightAware ADS-B
05:40PM 48.0034 -123.4503 291° West 473 544 36,000  Level FlightAware ADS-B (CYWH)
05:41PM 48.0108 -123.4791 291° West 474 545 36,000  Level FlightAware ADS-B (CYWH)
05:41PM 48.0186 -123.5091 291° West 477 549 36,000  Level FlightAware ADS-B (FAKM / KIM)
05:41PM 48.0220 -123.5220 291° West 478 550 36,000  Level FlightAware ADS-B
05:41PM 48.0432 -123.6044 291° West 479 551 36,000  Level FlightAware ADS-B (FAKM / KIM)
05:41PM 48.0459 -123.6150 291° West 479 551 36,000  Level FlightAware ADS-B
05:42PM 48.0566 -123.6568 291° West 480 552 36,000  Level FlightAware ADS-B (FAKM / KIM)
05:42PM 48.0630 -123.6820 291° West 479 551 36,000  Level FlightAware
05:42PM 48.0729 -123.7205 291° West 481 554 36,000  Level FlightAware ADS-B (FAKM / KIM)
05:42PM 48.0849 -123.7680 291° West 480 552 36,000  Level FlightAware ADS-B
05:42PM 48.0729 -123.7205 111° Southeast 481 554 36,000  Level FlightAware ADS-B (FAKM / KIM)
05:42PM 48.0965 -123.8128 291° West 481 554 36,000  Level FlightAware ADS-B (FAKM / KIM)
05:43PM 48.1065 -123.8524 291° West 481 554 36,000  Level FlightAware ADS-B (FAKM / KIM)
05:43PM 48.1143 -123.8828 291° West 479 551 36,000  Level FlightAware ADS-B (CYWH)
05:43PM 48.1183 -123.8990 291° West 481 554 36,000  Level FlightAware ADS-B
05:43PM 48.1221 -123.9139 291° West 479 551 36,000  Level FlightAware ADS-B (CYWH)
05:43PM 48.1256 -123.9276 291° West 481 554 36,000  Level FlightAware ADS-B (FAKM / KIM)
05:43PM 48.1421 -123.9930 291° West 481 554 36,000  Level FlightAware ADS-B
05:44PM 48.1525 -124.0338 291° West 481 554 36,000  Level FlightAware ADS-B (FAKM / KIM)
05:44PM 48.1661 -124.0880 291° West 481 554 36,000  Level FlightAware ADS-B
05:44PM 48.1693 -124.1009 291° West 479 551 36,000  Level FlightAware ADS-B (FAKM / KIM)
05:44PM 48.1895 -124.1820 290° West 479 551 36,000  Level FlightAware ADS-B
05:45PM 48.2002 -124.2243 291° West 479 551 36,000  Level FlightAware ADS-B (FAKM / KIM)
05:45PM 48.2129 -124.2750 291° West 479 551 36,000  Level FlightAware ADS-B
05:45PM 48.2234 -124.3174 290° West 479 551 36,000  Level FlightAware ADS-B (FAKM / KIM)
05:45PM 48.2362 -124.3690 290° West 479 551 36,000  Level FlightAware ADS-B
05:46PM 48.2466 -124.4106 291° West 479 551 36,000  Level FlightAware ADS-B (FAKM / KIM)
05:46PM 48.2595 -124.4630 290° West 479 551 36,000  Level FlightAware ADS-B
05:46PM 48.2765 -124.5315 290° West 478 550 36,000  Level FlightAware ADS-B (CYWH)
05:47PM 48.2893 -124.5840 290° West 476 548 36,000  Level FlightAware ADS-B
05:47PM 48.3061 -124.6524 290° West 477 549 36,000  Level FlightAware ADS-B (CYWH)
05:47PM 48.3118 -124.6770 289° West 478 550 36,000  Level FlightAware ADS-B
05:47PM 48.3078 -124.6593 109° East 477 549 36,000  Level FlightAware ADS-B (FAKM / KIM)
05:48PM 48.3341 -124.7780 288° West 476 548 36,000  Level FlightAware ADS-B
05:48PM 48.3368 -124.7909 288° West 476 548 36,000  Level FlightAware ADS-B (CYWH)
05:48PM 48.3557 -124.8780 288° West 477 549 36,000  Level FlightAware ADS-B
05:48PM 48.3637 -124.9145 288° West 476 548 36,000  Level FlightAware ADS-B (CYWH)
05:49PM 48.3864 -125.0180 288° West 476 548 36,000  Level FlightAware ADS-B
05:50PM 48.4129 -125.1392 288° West 475 547 36,000  Level FlightAware ADS-B (CYWH)
05:50PM 48.4367 -125.2484 288° West 477 549 36,000  Level FlightAware ADS-B (CYWH)
05:51PM 48.4590 -125.3510 288° West 475 547 36,000  Level FlightAware ADS-B
05:51PM 48.4810 -125.4510 288° West 480 552 36,000  Level FlightAware
05:52PM 48.5050 -125.5630 288° West 482 555 36,000  Level FlightAware
05:52PM 48.5260 -125.6630 288° West 483 556 36,000  Level FlightAware
05:53PM 48.5550 -125.8010 288° West 480 552 36,000  Level FlightAware
05:54PM 48.5770 -125.9030 288° West 480 552 36,000  Level FlightAware
05:54PM 48.5970 -125.9990 288° West 478 550 36,000  Level FlightAware
05:55PM 48.6280 -126.1510 287° West 477 549 36,000  Level FlightAware
05:56PM 48.6550 -126.2810 287° West 475 547 36,000  Level FlightAware
05:56PM 48.6840 -126.4190 288° West 475 547 36,000  Level FlightAware
05:57PM 48.7050 -126.5220 287° West 474 545 36,000  Level FlightAware
05:58PM 48.7350 -126.6690 287° West 476 548 36,000  Level FlightAware
05:58PM 48.7590 -126.7900 287° West 474 545 36,000  Level FlightAware
05:59PM 48.7810 -126.9000 287° West 475 547 36,000  Level FlightAware
05:59PM 48.7990 -126.9880 287° West 477 549 36,000  Level FlightAware
06:00PM 48.8400 -127.1980 287° West 478 550 36,000  Level FlightAware
06:01PM 48.8570 -127.2850 287° West 479 551 36,000  Level FlightAware
06:01PM 48.8810 -127.4080 287° West 478 550 36,000  Level FlightAware
06:02PM 48.9100 -127.5530 287° West 478 550 36,000  Level FlightAware
06:03PM 48.9400 -127.7150 286° West 475 547 36,000  Level FlightAware
06:04PM 48.9600 -127.8150 287° West 475 547 36,000  Level FlightAware
06:04PM 48.9810 -127.9190 287° West 475 547 36,000  Level FlightAware
06:05PM 49.0120 -128.0910 285° West 476 548 36,000  Level FlightAware
06:06PM 49.0320 -128.1950 286° West 476 548 36,000  Level FlightAware
06:06PM 49.0500 -128.2940 286° West 476 548 36,000  Level FlightAware
06:07PM 49.0830 -128.4780 285° West 473 544 36,000  Level FlightAware
06:08PM 49.1000 -128.5760 285° West 473 544 36,000  Level FlightAware
06:08PM 49.1180 -128.6750 286° West 473 544 36,000  Level FlightAware
06:09PM 49.1350 -128.7740 285° West 473 544 36,000  Level FlightAware
06:09PM 49.1520 -128.8730 285° West 473 544 36,000  Level FlightAware
06:10PM 49.1700 -128.9720 286° West 473 544 36,000  Level FlightAware
06:11PM 49.1920 -129.0980 285° West 473 544 36,000  Level FlightAware
06:11PM 49.2090 -129.1970 285° West 473 544 36,000  Level FlightAware
06:12PM 49.2260 -129.2960 285° West 473 544 36,000  Level FlightAware
06:13PM 49.2430 -129.3930 285° West 473 544 36,000  Level FlightAware
06:13PM 49.2610 -129.4920 286° West 473 544 36,000  Level FlightAware
06:14PM 49.2780 -129.5910 285° West 473 544 36,000  Level FlightAware
06:14PM 49.2960 -129.6930 285° West 473 544 36,000  Level FlightAware
06:15PM 49.3130 -129.7920 285° West 473 544 36,000  Level FlightAware
06:16PM 49.3300 -129.8910 285° West 473 544 36,000  Level FlightAware
06:16PM 49.3480 -129.9910 285° West 473 544 36,000  Level FlightAware
06:17PM 49.4333 -130.5000 285° West 480 552 36,000  Level Vancouver Center
06:18PM 49.4667 -130.7167 283° West 470 541 36,000  Level Vancouver Center
06:19PM 49.5000 -130.9000 286° West 480 552 36,000  Level Vancouver Center
06:20PM 49.5500 -131.0833 293° West 480 552 36,000  Level Vancouver Center
06:21PM 49.5833 -131.2667 286° West 470 541 36,000  Level Vancouver Center
06:22PM 49.6167 -131.4667 284° West 470 541 36,000  Level Vancouver Center
06:23PM 49.6500 -131.6667 285° West 470 541 36,000  Level Vancouver Center
06:24PM 49.7000 -131.8667 291° West 470 541 36,000  Level Vancouver Center
06:25PM 49.7333 -132.0500 286° West 470 541 36,000  Level Vancouver Center
06:26PM 49.7667 -132.2333 286° West 470 541 36,000  Level Vancouver Center
06:27PM 49.8000 -132.4167 286° West 460 529 36,000  Level Vancouver Center
06:28PM 49.8333 -132.6333 283° West 470 541 36,000  Level Vancouver Center
06:29PM 49.8667 -132.8333 285° West 460 529 36,000  Level Vancouver Center
06:30PM 49.9000 -133.0167 286° West 470 541 36,000  Level Vancouver Center
06:31PM 49.9500 -133.2000 293° West 460 529 36,000  Level Vancouver Center
06:32PM 49.9833 -133.4000 273° West 470 541 36,000  Level Vancouver Center
06:33PM 50.0000 -133.4000 273° West 455 524 36,000  Level Oakland Oceanic (ODAPS)
06:33PM 50.0000 -133.6000 277° West 460 529 36,000  Level Vancouver Center
06:35PM 50.0000 -133.9500 270° West 490 564 36,000  Level Vancouver Center
06:37PM 50.0059 -134.1740 272° West  Level FlightAware Approximate
06:44PM 50.0325 -135.5190 272° West  Level FlightAware Approximate
06:45PM 50.0347 -135.7114 271° West  Level FlightAware Approximate
06:45PM 50.0500 -135.9167 270° West 455 524 36,000  Level Oakland Oceanic (ODAPS)
06:46PM 50.0366 -135.9037 271° West  Level FlightAware Approximate
06:47PM 50.0381 -136.0959 271° West  Level FlightAware Approximate
06:48PM 50.0393 -136.2883 271° West  Level FlightAware Approximate
06:49PM 50.0401 -136.4806 270° West  Level FlightAware Approximate
06:50PM 50.0407 -136.6729 270° West  Level FlightAware Approximate
06:51PM 50.0409 -136.8652 270° West  Level FlightAware Approximate
06:52PM 50.0503 -137.0840 270° West 455 524 36,000  Level FlightAware Transoceanic
06:53PM 50.0493 -137.2786 269° West 455 524 36,000  Level FlightAware Transoceanic
06:54PM 50.0479 -137.4731 269° West 455 524 36,000  Level FlightAware Transoceanic
06:55PM 50.0461 -137.6676 269° West 455 524 36,000  Level FlightAware Transoceanic
06:56PM 50.0441 -137.8622 269° West 455 524 36,000  Level FlightAware Transoceanic
06:57PM 50.0417 -138.0566 269° West 455 524 36,000  Level FlightAware Transoceanic
06:58PM 50.0390 -138.2511 269° West 455 524 36,000  Level FlightAware Transoceanic
06:59PM 50.0359 -138.4456 269° West 455 524 36,000 540 Level FlightAware Transoceanic
06:59PM 50.0333 -138.6500 268° West 455 524 37,000  Climbing Oakland Oceanic (ODAPS)
07:00PM 50.0326 -138.6400 268° West 455 524 36,000 -900 Descending FlightAware Transoceanic
07:01PM 50.0289 -138.8344 268° West 455 524 36,000  Level FlightAware Transoceanic
07:02PM 50.0249 -139.0287 268° West 455 524 36,000  Level FlightAware Transoceanic
07:03PM 50.0206 -139.2231 268° West 455 524 36,000  Level FlightAware Transoceanic
07:04PM 50.0159 -139.4174 268° West 455 524 36,000  Level FlightAware Transoceanic
07:05PM 50.0109 -139.6116 268° West 455 524 36,000 480 Level FlightAware Transoceanic
07:06PM 50.0057 -139.8073 267° West 455 524 37,000 1,020 Climbing FlightAware Transoceanic
07:06PM 50.0000 -140.0000 274° West 449 517 38,000  Climbing Oakland Oceanic (ODAPS)
07:07PM 50.0000 -140.0000 274° West 455 524 37,000 -960 Descending FlightAware Transoceanic
07:08PM 50.0086 -140.2035 274° West 455 524 37,000  Level FlightAware Transoceanic
07:09PM 50.0168 -140.4071 274° West 455 524 37,000  Level FlightAware Transoceanic
07:10PM 50.0247 -140.6107 273° West 455 524 37,000  Level FlightAware Transoceanic
07:11PM 50.0322 -140.8145 273° West 455 524 37,000  Level FlightAware Transoceanic
07:12PM 50.0394 -141.0182 273° West 455 524 37,000 480 Level FlightAware Transoceanic
07:13PM 50.0446 -141.1741 273° West 449 517 38,000 540 Climbing FlightAware Transoceanic
07:13PM 50.0500 -141.2833 273° West 448 516 38,000  Level Oakland Oceanic (ODAPS)
07:14PM 50.0509 -141.3700 273° West 449 517 38,000  Level FlightAware Transoceanic
07:15PM 50.0569 -141.5659 273° West 449 517 38,000  Level FlightAware Transoceanic
07:16PM 50.0625 -141.7619 272° West 449 517 38,000  Level FlightAware Transoceanic
07:17PM 50.0678 -141.9579 272° West 449 517 38,000  Level FlightAware Transoceanic
07:18PM 50.0727 -142.1540 272° West 449 517 38,000  Level FlightAware Transoceanic
07:19PM 50.0774 -142.3501 272° West 449 517 38,000  Level FlightAware Transoceanic
07:20PM 50.0811 -142.4449 272° West 448 516 38,000  Level FlightAware Transoceanic
07:21PM 50.0851 -142.6387 272° West 448 516 38,000  Level FlightAware Transoceanic
07:22PM 50.0889 -142.8324 272° West 448 516 38,000  Level FlightAware Transoceanic
07:23PM 50.0923 -143.0262 271° West 448 516 38,000  Level FlightAware Transoceanic
07:24PM 50.0953 -143.2200 271° West 448 516 38,000  Level FlightAware Transoceanic
07:25PM 50.0981 -143.4139 271° West 448 516 38,000  Level FlightAware Transoceanic
07:26PM 50.1006 -143.6078 271° West 448 516 38,000  Level FlightAware Transoceanic
07:27PM 50.1027 -143.8016 271° West 448 516 38,000  Level FlightAware Transoceanic
07:27PM 50.1000 -143.9500 271° West 466 536 38,000  Level Oakland Oceanic (ODAPS)
07:28PM 50.1045 -143.9955 271° West 448 516 38,000  Level FlightAware Transoceanic
07:29PM 50.1059 -144.1894 271° West 448 516 38,000  Level FlightAware Transoceanic
07:30PM 50.1071 -144.3834 270° West 448 516 38,000  Level FlightAware Transoceanic
07:31PM 50.1079 -144.5773 270° West 448 516 38,000  Level FlightAware Transoceanic
07:32PM 50.1084 -144.7712 270° West 448 516 38,000  Level FlightAware Transoceanic
07:33PM 50.1052 -145.1614 270° West 466 536 38,000  Level FlightAware Transoceanic
07:34PM 50.1048 -145.3633 270° West 466 536 38,000  Level FlightAware Transoceanic
07:35PM 50.1041 -145.5652 270° West 466 536 38,000  Level FlightAware Transoceanic
07:36PM 50.1030 -145.7671 269° West 466 536 38,000  Level FlightAware Transoceanic
07:37PM 50.1016 -145.9690 269° West 466 536 38,000  Level FlightAware Transoceanic
07:38PM 50.0999 -146.1709 269° West 466 536 38,000  Level FlightAware Transoceanic
07:39PM 50.0978 -146.3727 269° West 466 536 38,000  Level FlightAware Transoceanic
07:40PM 50.0953 -146.5746 269° West 466 536 38,000  Level FlightAware Transoceanic
07:41PM 50.0925 -146.7764 269° West 466 536 38,000  Level FlightAware Transoceanic
07:41PM 50.1000 -146.7833 268° West 479 551 38,000  Level Oakland Oceanic (ODAPS)
07:42PM 50.0893 -146.9781 269° West 466 536 38,000  Level FlightAware Transoceanic
07:43PM 50.0858 -147.1799 268° West 466 536 38,000  Level FlightAware Transoceanic
07:44PM 50.0820 -147.3817 268° West 466 536 38,000  Level FlightAware Transoceanic
07:45PM 50.0777 -147.5833 268° West 466 536 38,000  Level FlightAware Transoceanic
07:46PM 50.0732 -147.7850 268° West 466 536 38,000  Level FlightAware Transoceanic
07:47PM 50.0729 -147.9911 268° West 479 551 38,000  Level FlightAware Transoceanic
07:48PM 50.0672 -148.1922 267° West 479 551 38,000  Level FlightAware Transoceanic
07:49PM 50.0611 -148.3933 267° West 479 551 38,000  Level FlightAware Transoceanic
07:50PM 50.0547 -148.5944 267° West 479 551 38,000  Level FlightAware Transoceanic
07:51PM 50.0479 -148.7954 267° West 479 551 38,000  Level FlightAware Transoceanic
07:52PM 50.0408 -148.9963 267° West 479 551 38,000  Level FlightAware Transoceanic
07:53PM 50.0333 -149.1972 267° West 479 551 38,000  Level FlightAware Transoceanic
07:54PM 50.0255 -149.3980 266° West 479 551 38,000  Level FlightAware Transoceanic
07:55PM 50.0174 -149.5987 266° West 479 551 38,000  Level FlightAware Transoceanic
07:55PM 50.0167 -149.6500 266° West 465 535 38,000  Level Oakland Oceanic (ODAPS)
07:56PM 50.0089 -149.7994 266° West 479 551 38,000  Level FlightAware Transoceanic
07:57PM 50.0000 -150.0000 265° West 479 551 38,000  Level FlightAware Transoceanic
07:57PM 50.0000 -150.0000 265° West 468 539 38,000  Level Oakland Oceanic (ODAPS)
07:58PM 49.9885 -150.2035 265° West 479 551 38,000  Level FlightAware Transoceanic
07:59PM 49.9767 -150.4069 265° West 479 551 38,000  Level FlightAware Transoceanic
08:00PM 49.9646 -150.6102 265° West 479 551 38,000  Level FlightAware Transoceanic
08:01PM 49.9521 -150.8134 264° West 465 535 38,000  Level FlightAware Transoceanic
08:02PM 49.9392 -151.0164 264° West 465 535 38,000  Level FlightAware Transoceanic
08:03PM 49.9260 -151.2194 264° West 468 539 38,000  Level FlightAware Transoceanic
08:04PM 49.9124 -151.4223 264° West 468 539 38,000  Level FlightAware Transoceanic
08:05PM 49.8984 -151.6250 264° West 468 539 38,000  Level FlightAware Transoceanic
08:06PM 49.8842 -151.8276 264° West 468 539 38,000  Level FlightAware Transoceanic
08:07PM 49.8695 -152.0301 264° West 468 539 38,000  Level FlightAware Transoceanic
08:08PM 49.8545 -152.2325 263° West 468 539 38,000  Level FlightAware Transoceanic
08:09PM 49.8392 -152.4348 263° West 468 539 38,000  Level FlightAware Transoceanic
08:09PM 49.8333 -152.4333 263° West 473 544 38,000  Level Oakland Oceanic (ODAPS)
08:10PM 49.8235 -152.6369 263° West 468 539 38,000  Level FlightAware Transoceanic
08:11PM 49.8074 -152.8389 263° West 468 539 38,000  Level FlightAware Transoceanic
08:12PM 49.7910 -153.0407 263° West 468 539 38,000  Level FlightAware Transoceanic
08:13PM 49.7743 -153.2424 263° West 468 539 38,000  Level FlightAware Transoceanic
08:14PM 49.7572 -153.4440 262° West 468 539 38,000  Level FlightAware Transoceanic
08:15PM 49.7348 -153.6441 262° West 473 544 38,000  Level FlightAware Transoceanic
08:16PM 49.7172 -153.8454 262° West 473 544 38,000  Level FlightAware Transoceanic
08:17PM 49.6992 -154.0466 262° West 473 544 38,000  Level FlightAware Transoceanic
08:18PM 49.6809 -154.2476 262° West 473 544 38,000  Level FlightAware Transoceanic
08:19PM 49.6622 -154.4485 262° West 473 544 38,000  Level FlightAware Transoceanic
08:20PM 49.6431 -154.6492 262° West 473 544 38,000  Level FlightAware Transoceanic
08:21PM 49.6237 -154.8497 261° West 473 544 38,000  Level FlightAware Transoceanic
08:22PM 49.6040 -155.0501 261° West 473 544 38,000  Level FlightAware Transoceanic
08:22PM 49.6000 -155.1833 261° West 469 540 38,000  Level Oakland Oceanic (ODAPS)
08:23PM 49.5839 -155.2503 261° West 473 544 38,000  Level FlightAware Transoceanic
08:24PM 49.5635 -155.4503 261° West 473 544 38,000  Level FlightAware Transoceanic
08:25PM 49.5428 -155.6502 261° West 473 544 38,000  Level FlightAware Transoceanic
08:26PM 49.5216 -155.8499 261° West 473 544 38,000  Level FlightAware Transoceanic
08:27PM 49.5002 -156.0495 261° West 473 544 38,000  Level FlightAware Transoceanic
08:28PM 49.4784 -156.2488 260° West 473 544 38,000  Level FlightAware Transoceanic
08:29PM 49.4563 -156.4480 260° West 473 544 38,000  Level FlightAware Transoceanic
08:30PM 49.4458 -156.6001 260° West 469 540 38,000  Level FlightAware Transoceanic
08:31PM 49.4223 -156.8017 260° West 469 540 38,000  Level FlightAware Transoceanic
08:32PM 49.3985 -157.0032 260° West 469 540 38,000  Level FlightAware Transoceanic
08:33PM 49.3744 -157.2044 259° West 469 540 38,000  Level FlightAware Transoceanic
08:34PM 49.3499 -157.4055 259° West 469 540 38,000  Level FlightAware Transoceanic
08:35PM 49.3250 -157.6063 259° West 469 540 38,000  Level FlightAware Transoceanic
08:36PM 49.2998 -157.8070 259° West 469 540 38,000  Level FlightAware Transoceanic
08:36PM 49.2833 -157.9000 259° West 459 528 38,000  Level Oakland Oceanic (ODAPS)
08:37PM 49.2743 -158.0074 259° West 469 540 38,000  Level FlightAware Transoceanic
08:38PM 49.2484 -158.2077 259° West 469 540 38,000  Level FlightAware Transoceanic
08:39PM 49.2222 -158.4077 259° West 469 540 38,000  Level FlightAware Transoceanic
08:40PM 49.1956 -158.6075 258° West 469 540 38,000  Level FlightAware Transoceanic
08:41PM 49.1687 -158.8071 258° West 469 540 38,000  Level FlightAware Transoceanic
08:42PM 49.1414 -159.0065 258° West 469 540 38,000  Level FlightAware Transoceanic
08:43PM 49.1335 -159.0484 258° West 459 528 38,000  Level FlightAware Transoceanic
08:44PM 49.1074 -159.2392 258° West 459 528 38,000  Level FlightAware Transoceanic
08:45PM 49.0810 -159.4297 258° West 459 528 38,000  Level FlightAware Transoceanic
08:46PM 49.0543 -159.6200 258° West 459 528 38,000  Level FlightAware Transoceanic
08:47PM 49.0273 -159.8101 258° West 459 528 38,000  Level FlightAware Transoceanic
08:48PM 49.0000 -160.0000 265° West 459 528 38,000  Level FlightAware Transoceanic
08:49PM 48.9896 -160.1849 265° West 459 528 38,000  Level FlightAware Transoceanic
08:49PM 49.0000 -160.0000 265° West 451 519 38,000  Level Oakland Oceanic (ODAPS)
08:50PM 48.9790 -160.3697 265° West 459 528 38,000  Level FlightAware Transoceanic
08:51PM 48.9680 -160.5544 265° West 459 528 38,000  Level FlightAware Transoceanic
08:51PM 48.9667 -160.5500 265° West 454 522 38,000  Level Oakland Oceanic (ODAPS)
08:52PM 48.9568 -160.7391 265° West 459 528 38,000  Level FlightAware Transoceanic
08:53PM 48.9453 -160.9236 264° West 459 528 38,000  Level FlightAware Transoceanic
08:54PM 48.9334 -161.1081 264° West 459 528 38,000  Level FlightAware Transoceanic
08:55PM 48.9213 -161.2925 264° West 459 528 38,000  Level FlightAware Transoceanic
08:56PM 48.9051 -161.5324 264° West 451 519 38,000  Level FlightAware Transoceanic
08:57PM 48.8919 -161.7012 264° West 454 522 38,000  Level FlightAware Transoceanic
08:58PM 48.8783 -161.8928 264° West 454 522 38,000  Level FlightAware Transoceanic
08:59PM 48.8644 -162.0842 264° West 454 522 38,000  Level FlightAware Transoceanic
09:00PM 48.8502 -162.2755 263° West 454 522 38,000  Level FlightAware Transoceanic
09:01PM 48.8357 -162.4667 263° West 454 522 38,000  Level FlightAware Transoceanic
09:02PM 48.8209 -162.6578 263° West 454 522 38,000  Level FlightAware Transoceanic
09:03PM 48.8057 -162.8488 263° West 454 522 38,000  Level FlightAware Transoceanic
09:04PM 48.7902 -163.0397 263° West 454 522 38,000  Level FlightAware Transoceanic
09:05PM 48.7744 -163.2304 263° West 454 522 38,000  Level FlightAware Transoceanic
09:05PM 48.7833 -163.2167 263° West 450 518 38,000  Level Oakland Oceanic (ODAPS)
09:06PM 48.7583 -163.4210 263° West 454 522 38,000  Level FlightAware Transoceanic
09:07PM 48.7419 -163.6115 262° West 454 522 38,000  Level FlightAware Transoceanic
09:08PM 48.7252 -163.8019 262° West 454 522 38,000  Level FlightAware Transoceanic
09:09PM 48.7081 -163.9922 262° West 454 522 38,000  Level FlightAware Transoceanic
09:10PM 48.6908 -164.1823 262° West 454 522 38,000  Level FlightAware Transoceanic
09:11PM 48.6659 -164.5153 262° West 450 518 38,000  Level FlightAware Transoceanic
09:12PM 48.6479 -164.7003 262° West 450 518 38,000  Level FlightAware Transoceanic
09:13PM 48.6297 -164.8852 261° West 450 518 38,000  Level FlightAware Transoceanic
09:14PM 48.6111 -165.0699 261° West 450 518 38,000  Level FlightAware Transoceanic
09:15PM 48.5923 -165.2545 261° West 450 518 38,000  Level FlightAware Transoceanic
09:16PM 48.5731 -165.4390 261° West 450 518 38,000  Level FlightAware Transoceanic
09:17PM 48.5537 -165.6233 261° West 450 518 38,000  Level FlightAware Transoceanic
09:18PM 48.5340 -165.8075 261° West 450 518 38,000  Level FlightAware Transoceanic
09:19PM 48.5139 -165.9915 261° West 450 518 38,000 780 Level FlightAware Transoceanic
09:19PM 48.5333 -165.7833 261° West 441 507 39,000  Climbing Oakland Oceanic (ODAPS)
09:20PM 48.4936 -166.1754 260° West 450 518 38,000 -600 Descending FlightAware Transoceanic
09:21PM 48.4730 -166.3591 260° West 450 518 38,000  Level FlightAware Transoceanic
09:22PM 48.4521 -166.5427 260° West 450 518 38,000  Level FlightAware Transoceanic
09:23PM 48.4309 -166.7262 260° West 450 518 38,000  Level FlightAware Transoceanic
09:24PM 48.4094 -166.9095 260° West 450 518 38,000 480 Level FlightAware Transoceanic
09:25PM 48.3937 -167.0221 260° West 441 507 39,000 480 Climbing FlightAware Transoceanic
09:26PM 48.3727 -167.1985 260° West 441 507 39,000  Level FlightAware Transoceanic
09:27PM 48.3514 -167.3748 260° West 441 507 39,000  Level FlightAware Transoceanic
09:28PM 48.3299 -167.5509 259° West 441 507 39,000  Level FlightAware Transoceanic
09:29PM 48.3080 -167.7269 259° West 441 507 39,000  Level FlightAware Transoceanic
09:30PM 48.2859 -167.9027 259° West 441 507 39,000  Level FlightAware Transoceanic
09:31PM 48.2636 -168.0783 259° West 441 507 39,000  Level FlightAware Transoceanic
09:32PM 48.2409 -168.2538 259° West 441 507 39,000 600 Level FlightAware Transoceanic
09:32PM 48.2500 -168.2333 259° West 434 499 40,000  Climbing Oakland Oceanic (ODAPS)
09:33PM 48.2180 -168.4292 259° West 441 507 39,000 -720 Descending FlightAware Transoceanic
09:34PM 48.1949 -168.6044 259° West 441 507 39,000  Level FlightAware Transoceanic
09:35PM 48.1714 -168.7794 259° West 441 507 39,000  Level FlightAware Transoceanic
09:36PM 48.1477 -168.9543 258° West 441 507 39,000  Level FlightAware Transoceanic
09:37PM 48.1238 -169.1290 258° West 441 507 39,000 480 Level FlightAware Transoceanic
09:38PM 48.1032 -169.2954 258° West 434 499 40,000 480 Climbing FlightAware Transoceanic
09:39PM 48.0778 -169.4718 258° West 434 499 40,000  Level FlightAware Transoceanic
09:40PM 48.0522 -169.6481 258° West 434 499 40,000  Level FlightAware Transoceanic
09:41PM 48.0262 -169.8241 258° West 434 499 40,000  Level FlightAware Transoceanic
09:42PM 48.0000 -170.0000 265° West 434 499 40,000  Level FlightAware Transoceanic
09:43PM 47.9899 -170.1815 265° West 434 499 40,000  Level FlightAware Transoceanic
09:43PM 47.9833 -170.1833 265° West 440 506 40,000  Level Oakland Oceanic (ODAPS)
09:44PM 47.9794 -170.3629 265° West 434 499 40,000  Level FlightAware Transoceanic
09:45PM 47.9687 -170.5442 265° West 434 499 40,000  Level FlightAware Transoceanic
09:46PM 47.9577 -170.7255 265° West 434 499 40,000  Level FlightAware Transoceanic
09:46PM 47.9667 -170.6500 265° West 428 493 40,000  Level Oakland Oceanic (ODAPS)
09:47PM 47.9464 -170.9066 265° West 434 499 40,000  Level FlightAware Transoceanic
09:48PM 47.9348 -171.0877 264° West 434 499 40,000  Level FlightAware Transoceanic
09:49PM 47.9172 -171.2703 264° West 440 506 40,000  Level FlightAware Transoceanic
09:50PM 47.9051 -171.4512 264° West 440 506 40,000  Level FlightAware Transoceanic
09:51PM 47.8928 -171.6319 264° West 440 506 40,000  Level FlightAware Transoceanic
09:52PM 47.8957 -171.7242 264° West 428 493 40,000  Level FlightAware Transoceanic
09:53PM 47.8829 -171.9029 264° West 428 493 40,000  Level FlightAware Transoceanic
09:54PM 47.8699 -172.0815 264° West 428 493 40,000  Level FlightAware Transoceanic
09:55PM 47.8565 -172.2601 264° West 428 493 40,000  Level FlightAware Transoceanic
09:56PM 47.8429 -172.4385 263° West 428 493 40,000  Level FlightAware Transoceanic
09:57PM 47.8290 -172.6169 263° West 428 493 40,000  Level FlightAware Transoceanic
09:58PM 47.8148 -172.7952 263° West 428 493 40,000  Level FlightAware Transoceanic
09:59PM 47.8004 -172.9733 263° West 428 493 40,000  Level FlightAware Transoceanic
10:00PM 47.7856 -173.1514 263° West 428 493 40,000  Level FlightAware Transoceanic
10:00PM 47.7833 -173.1167 263° West 426 490 40,000  Level Oakland Oceanic (ODAPS)
10:01PM 47.7706 -173.3294 263° West 428 493 40,000  Level FlightAware Transoceanic
10:02PM 47.7554 -173.5072 263° West 428 493 40,000  Level FlightAware Transoceanic
10:03PM 47.7398 -173.6850 263° West 428 493 40,000  Level FlightAware Transoceanic
10:04PM 47.7240 -173.8627 262° West 428 493 40,000  Level FlightAware Transoceanic
10:05PM 47.7079 -174.0402 262° West 428 493 40,000  Level FlightAware Transoceanic
10:06PM 47.6898 -174.1882 262° West 426 490 40,000  Level FlightAware Transoceanic
10:07PM 47.6733 -174.3665 262° West 426 490 40,000  Level FlightAware Transoceanic
10:08PM 47.6564 -174.5446 262° West 426 490 40,000  Level FlightAware Transoceanic
10:09PM 47.6393 -174.7225 262° West 426 490 40,000  Level FlightAware Transoceanic
10:10PM 47.6219 -174.9004 262° West 426 490 40,000  Level FlightAware Transoceanic
10:11PM 47.6043 -175.0782 262° West 426 490 40,000  Level FlightAware Transoceanic
10:12PM 47.5864 -175.2558 261° West 426 490 40,000  Level FlightAware Transoceanic
10:13PM 47.5682 -175.4333 261° West 426 490 40,000  Level FlightAware Transoceanic
10:14PM 47.5497 -175.6107 261° West 426 490 40,000  Level FlightAware Transoceanic
10:14PM 47.5667 -175.5333 261° West 433 498 40,000  Level Oakland Oceanic (ODAPS)
10:15PM 47.5309 -175.7879 261° West 426 490 40,000  Level FlightAware Transoceanic
10:16PM 47.5119 -175.9650 261° West 426 490 40,000  Level FlightAware Transoceanic
10:17PM 47.4926 -176.1420 261° West 426 490 40,000  Level FlightAware Transoceanic
10:18PM 47.4731 -176.3189 261° West 426 490 40,000  Level FlightAware Transoceanic
10:19PM 47.4532 -176.4956 261° West 426 490 40,000  Level FlightAware Transoceanic
10:20PM 47.4465 -176.6139 260° West 433 498 40,000  Level FlightAware Transoceanic
10:21PM 47.4255 -176.7935 260° West 433 498 40,000  Level FlightAware Transoceanic
10:22PM 47.4043 -176.9729 260° West 433 498 40,000  Level FlightAware Transoceanic
10:23PM 47.3827 -177.1522 260° West 433 498 40,000  Level FlightAware Transoceanic
10:24PM 47.3609 -177.3314 260° West 433 498 40,000  Level FlightAware Transoceanic
10:25PM 47.3387 -177.5104 260° West 433 498 40,000  Level FlightAware Transoceanic
10:26PM 47.3163 -177.6893 259° West 433 498 40,000  Level FlightAware Transoceanic
10:27PM 47.2937 -177.8680 259° West 433 498 40,000  Level FlightAware Transoceanic
10:27PM 47.2833 -177.9667 259° West 431 496 40,000  Level Oakland Oceanic (ODAPS)
10:28PM 47.2707 -178.0465 259° West 433 498 40,000  Level FlightAware Transoceanic
10:29PM 47.2475 -178.2249 259° West 433 498 40,000  Level FlightAware Transoceanic
10:30PM 47.2240 -178.4032 259° West 433 498 40,000  Level FlightAware Transoceanic
10:31PM 47.2002 -178.5813 259° West 433 498 40,000  Level FlightAware Transoceanic
10:32PM 47.1761 -178.7592 259° West 433 498 40,000  Level FlightAware Transoceanic
10:33PM 47.1518 -178.9369 259° West 433 498 40,000  Level FlightAware Transoceanic
10:34PM 47.1333 -179.0784 258° West 431 496 40,000  Level FlightAware Transoceanic
10:35PM 47.1072 -179.2631 258° West 431 496 40,000  Level FlightAware Transoceanic
10:36PM 47.0808 -179.4476 258° West 431 496 40,000  Level FlightAware Transoceanic
10:37PM 47.0542 -179.6319 258° West 431 496 40,000  Level FlightAware Transoceanic
10:38PM 47.0272 -179.8161 258° West 431 496 40,000  Level FlightAware Transoceanic
10:39PM 47.0000 -180.0000 258° West 431 496 40,000  Level FlightAware Transoceanic
10:39PM 47.0000 180.0000 258° West 438 504 40,000  Level Oakland Oceanic (ODAPS)
10:40PM 46.9740 179.8277 257° West 431 496 40,000  Level FlightAware Transoceanic
10:41PM 46.9477 179.6556 257° West 431 496 40,000  Level FlightAware Transoceanic
10:41PM 46.9500 179.6500 257° West 442 509 40,000  Level Oakland Oceanic (ODAPS)
10:42PM 46.9212 179.4836 257° West 431 496 40,000  Level FlightAware Transoceanic
10:43PM 46.8944 179.3118 257° West 431 496 40,000  Level FlightAware Transoceanic
10:44PM 46.8673 179.1402 257° West 431 496 40,000  Level FlightAware Transoceanic
10:45PM 46.8400 178.9688 257° West 431 496 40,000  Level FlightAware Transoceanic
10:46PM 46.8372 178.9513 257° West 438 504 40,000  Level FlightAware Transoceanic
10:47PM 46.8092 178.7772 257° West 438 504 40,000  Level FlightAware Transoceanic
10:48PM 46.7806 178.5848 257° West 442 509 40,000  Level FlightAware Transoceanic
10:49PM 46.7514 178.4079 256° West 442 509 40,000  Level FlightAware Transoceanic
10:50PM 46.7220 178.2312 256° West 442 509 40,000  Level FlightAware Transoceanic
10:51PM 46.6923 178.0547 256° West 442 509 40,000  Level FlightAware Transoceanic
10:52PM 46.6623 177.8784 256° West 442 509 40,000  Level FlightAware Transoceanic
10:53PM 46.6320 177.7023 256° West 442 509 40,000  Level FlightAware Transoceanic
10:54PM 46.6015 177.5264 256° West 442 509 40,000  Level FlightAware Transoceanic
10:55PM 46.5706 177.3507 256° West 442 509 40,000  Level FlightAware Transoceanic
10:55PM 46.5333 177.1500 255° West 455 524 40,000  Level Oakland Oceanic (ODAPS)
10:56PM 46.5396 177.1752 255° West 442 509 40,000  Level FlightAware Transoceanic
10:57PM 46.5082 176.9999 255° West 442 509 40,000  Level FlightAware Transoceanic
10:58PM 46.4766 176.8248 255° West 442 509 40,000  Level FlightAware Transoceanic
10:59PM 46.4447 176.6499 255° West 442 509 40,000  Level FlightAware Transoceanic
11:00PM 46.4126 176.4752 255° West 442 509 40,000  Level FlightAware Transoceanic
11:01PM 46.3419 176.1050 255° West 455 524 40,000  Level FlightAware Transoceanic
11:02PM 46.3091 175.9316 255° West 455 524 40,000  Level FlightAware Transoceanic
11:03PM 46.2761 175.7583 254° West 455 524 40,000  Level FlightAware Transoceanic
11:04PM 46.2427 175.5853 254° West 455 524 40,000  Level FlightAware Transoceanic
11:05PM 46.2091 175.4125 254° West 455 524 40,000  Level FlightAware Transoceanic
11:06PM 46.1752 175.2399 254° West 455 524 40,000  Level FlightAware Transoceanic
11:07PM 46.1411 175.0675 254° West 455 524 40,000  Level FlightAware Transoceanic
11:08PM 46.1067 174.8954 254° West 455 524 40,000  Level FlightAware Transoceanic
11:09PM 46.0721 174.7234 254° West 455 524 40,000  Level FlightAware Transoceanic
11:09PM 46.0667 174.7000 254° West 456 525 40,000  Level Oakland Oceanic (ODAPS)
11:10PM 46.0372 174.5517 254° West 455 524 40,000  Level FlightAware Transoceanic
11:11PM 46.0020 174.3801 253° West 455 524 40,000  Level FlightAware Transoceanic
11:12PM 45.9666 174.2088 253° West 455 524 40,000  Level FlightAware Transoceanic
11:13PM 45.9310 174.0377 253° West 455 524 40,000  Level FlightAware Transoceanic
11:14PM 45.8950 173.8669 253° West 455 524 40,000  Level FlightAware Transoceanic
11:15PM 45.8544 173.6780 253° West 456 525 40,000  Level FlightAware Transoceanic
11:16PM 45.8182 173.5084 253° West 456 525 40,000  Level FlightAware Transoceanic
11:17PM 45.7817 173.3391 253° West 456 525 40,000  Level FlightAware Transoceanic
11:18PM 45.7449 173.1700 253° West 456 525 40,000  Level FlightAware Transoceanic
11:19PM 45.7079 173.0011 253° West 456 525 40,000  Level FlightAware Transoceanic
11:20PM 45.6707 172.8324 252° West 456 525 40,000  Level FlightAware Transoceanic
11:21PM 45.6332 172.6639 252° West 456 525 40,000  Level FlightAware Transoceanic
11:22PM 45.5954 172.4957 252° West 456 525 40,000  Level FlightAware Transoceanic
11:23PM 45.5574 172.3277 252° West 456 525 40,000  Level FlightAware Transoceanic
11:23PM 45.5667 172.3667 252° West 432 497 40,000  Level Oakland Oceanic (ODAPS)
11:24PM 45.5192 172.1599 252° West 456 525 40,000  Level FlightAware Transoceanic
11:25PM 45.4807 171.9924 252° West 456 525 40,000  Level FlightAware Transoceanic
11:26PM 45.4420 171.8251 252° West 456 525 40,000  Level FlightAware Transoceanic
11:27PM 45.4030 171.6580 252° West 456 525 40,000  Level FlightAware Transoceanic
11:28PM 45.3638 171.4911 251° West 456 525 40,000  Level FlightAware Transoceanic
11:29PM 45.3459 171.4143 251° West 432 497 40,000  Level FlightAware Transoceanic
11:30PM 45.3083 171.2563 251° West 432 497 40,000  Level FlightAware Transoceanic
11:31PM 45.2705 171.0986 251° West 432 497 40,000  Level FlightAware Transoceanic
11:32PM 45.2325 170.9410 251° West 432 497 40,000  Level FlightAware Transoceanic
11:33PM 45.1943 170.7836 251° West 432 497 40,000  Level FlightAware Transoceanic
11:34PM 45.1559 170.6265 251° West 432 497 40,000  Level FlightAware Transoceanic
11:35PM 45.1172 170.4695 251° West 432 497 40,000  Level FlightAware Transoceanic
11:36PM 45.0784 170.3128 251° West 432 497 40,000  Level FlightAware Transoceanic
11:37PM 45.0393 170.1563 250° West 432 497 40,000  Level FlightAware Transoceanic
11:37PM 45.0500 170.1667 247° West 412 474 40,000  Level Oakland Oceanic (ODAPS)
11:38PM 45.0000 170.0000 251° West 432 497 40,000  Level FlightAware Transoceanic
11:38PM 45.0000 170.0000 251° West 419 482 40,000  Level Oakland Oceanic (ODAPS)
11:39PM 44.9618 169.8436 251° West 432 497 40,000  Level FlightAware Transoceanic
11:40PM 44.9235 169.6873 251° West 432 497 40,000  Level FlightAware Transoceanic
11:41PM 44.8849 169.5313 251° West 432 497 40,000  Level FlightAware Transoceanic
11:42PM 44.8461 169.3754 251° West 432 497 40,000  Level FlightAware Transoceanic
11:43PM 44.8071 169.2198 250° West 412 474 40,000  Level FlightAware Transoceanic
11:44PM 44.7714 169.0781 250° West 419 482 40,000  Level FlightAware Transoceanic
11:45PM 44.7325 168.9252 250° West 419 482 40,000  Level FlightAware Transoceanic
11:46PM 44.6935 168.7725 250° West 419 482 40,000  Level FlightAware Transoceanic
11:47PM 44.6543 168.6200 250° West 419 482 40,000  Level FlightAware Transoceanic
11:48PM 44.6148 168.4677 250° West 419 482 40,000  Level FlightAware Transoceanic
11:49PM 44.5752 168.3156 250° West 419 482 40,000  Level FlightAware Transoceanic
11:50PM 44.5354 168.1637 250° West 419 482 40,000  Level FlightAware Transoceanic
11:51PM 44.4953 168.0120 250° West 419 482 40,000  Level FlightAware Transoceanic
11:51PM 44.5000 168.0333 250° West 423 487 40,000  Level Oakland Oceanic (ODAPS)
11:52PM 44.4551 167.8605 250° West 419 482 40,000  Level FlightAware Transoceanic
11:53PM 44.4146 167.7092 249° West 419 482 40,000  Level FlightAware Transoceanic
11:54PM 44.3740 167.5582 249° West 419 482 40,000  Level FlightAware Transoceanic
11:55PM 44.3331 167.4073 249° West 419 482 40,000  Level FlightAware Transoceanic
11:56PM 44.2921 167.2567 249° West 419 482 40,000  Level FlightAware Transoceanic
11:57PM 44.2506 167.1084 249° West 423 487 40,000  Level FlightAware Transoceanic
11:58PM 44.2083 166.9550 249° West 423 487 40,000  Level FlightAware Transoceanic
11:59PM 44.1658 166.8018 249° West 423 487 40,000  Level FlightAware Transoceanic
12:00AM 44.1231 166.6489 249° West 423 487 40,000  Level FlightAware Transoceanic
12:01AM 44.0802 166.4962 249° West 423 487 40,000  Level FlightAware Transoceanic
12:02AM 44.0371 166.3437 248° West 423 487 40,000  Level FlightAware Transoceanic
12:03AM 43.9938 166.1914 248° West 423 487 40,000  Level FlightAware Transoceanic
12:04AM 43.9503 166.0393 248° West 423 487 40,000  Level FlightAware Transoceanic
12:05AM 43.9066 165.8875 248° West 423 487 40,000  Level FlightAware Transoceanic
12:05AM 43.9167 165.9333 248° West 413 475 40,000  Level Oakland Oceanic (ODAPS)
12:06AM 43.8627 165.7359 248° West 423 487 40,000  Level FlightAware Transoceanic
12:07AM 43.8186 165.5845 248° West 423 487 40,000  Level FlightAware Transoceanic
12:08AM 43.7743 165.4333 248° West 423 487 40,000  Level FlightAware Transoceanic
12:09AM 43.7297 165.2824 248° West 423 487 40,000  Level FlightAware Transoceanic
12:10AM 43.6850 165.1317 248° West 423 487 40,000  Level FlightAware Transoceanic
12:11AM 43.6556 165.0420 248° West 413 475 40,000  Level FlightAware Transoceanic
12:12AM 43.6114 164.8942 248° West 413 475 40,000  Level FlightAware Transoceanic
12:13AM 43.5671 164.7467 247° West 413 475 40,000  Level FlightAware Transoceanic
12:14AM 43.5225 164.5993 247° West 413 475 40,000  Level FlightAware Transoceanic
12:15AM 43.4778 164.4522 247° West 413 475 40,000  Level FlightAware Transoceanic
12:16AM 43.4328 164.3052 247° West 413 475 40,000  Level FlightAware Transoceanic
12:17AM 43.3877 164.1585 247° West 413 475 40,000  Level FlightAware Transoceanic
12:18AM 43.3424 164.0121 247° West 413 475 40,000  Level FlightAware Transoceanic
12:19AM 43.2969 163.8658 247° West 413 475 40,000  Level FlightAware Transoceanic
12:20AM 43.2512 163.7197 247° West 413 475 40,000  Level FlightAware Transoceanic
12:21AM 43.2053 163.5739 247° West 413 475 40,000  Level FlightAware Transoceanic
12:22AM 43.1593 163.4283 247° West 413 475 40,000  Level FlightAware Transoceanic
12:23AM 43.1130 163.2829 246° West 413 475 40,000  Level FlightAware Transoceanic
12:24AM 43.0666 163.1378 246° West 413 475 40,000  Level FlightAware Transoceanic
12:25AM 43.0200 162.9928 246° West 413 475 40,000  Level FlightAware Transoceanic
12:26AM 42.9732 162.8481 246° West 413 475 40,000  Level FlightAware Transoceanic
12:27AM 42.9263 162.7036 246° West 413 475 40,000  Level FlightAware Transoceanic
12:28AM 42.8791 162.5593 246° West 413 475 40,000  Level FlightAware Transoceanic
12:29AM 42.8318 162.4152 246° West 413 475 40,000  Level FlightAware Transoceanic
12:30AM 42.7843 162.2714 246° West 413 475 40,000  Level FlightAware Transoceanic
12:31AM 42.7366 162.1278 246° West 413 475 40,000  Level FlightAware Transoceanic
12:32AM 42.6887 161.9843 246° West 413 475 40,000  Level FlightAware Transoceanic
12:33AM 42.6407 161.8412 245° Southwest 413 475 40,000  Level FlightAware Transoceanic
12:34AM 42.5924 161.6982 245° Southwest 413 475 40,000  Level FlightAware Transoceanic
12:35AM 42.5440 161.5555 245° Southwest 413 475 40,000  Level FlightAware Transoceanic
12:36AM 42.4954 161.4130 245° Southwest 413 475 40,000  Level FlightAware Transoceanic
12:37AM 42.4467 161.2707 245° Southwest 413 475 40,000  Level FlightAware Transoceanic
12:38AM 42.3977 161.1286 245° Southwest 413 475 40,000  Level FlightAware Transoceanic
12:39AM 42.3486 160.9867 245° Southwest 413 475 40,000  Level FlightAware Transoceanic
12:40AM 42.2993 160.8451 245° Southwest 413 475 40,000  Level FlightAware Transoceanic
12:41AM 42.2499 160.7037 245° Southwest 413 475 40,000  Level FlightAware Transoceanic
12:42AM 42.2002 160.5625 245° Southwest 413 475 40,000  Level FlightAware Transoceanic
12:43AM 42.1505 160.4216 244° Southwest 413 475 40,000  Level FlightAware Transoceanic
12:44AM 42.1005 160.2808 244° Southwest 413 475 40,000  Level FlightAware Transoceanic
12:45AM 42.0503 160.1403 244° Southwest 413 475 40,000  Level FlightAware Transoceanic
12:46AM 42.0000 160.0000 246° West 413 475 40,000  Level FlightAware Transoceanic
12:47AM 41.9539 159.8591 246° West 413 475 40,000  Level FlightAware Transoceanic
12:48AM 41.9076 159.7184 246° West 413 475 40,000  Level FlightAware Transoceanic
12:49AM 41.8612 159.5779 246° West 413 475 40,000  Level FlightAware Transoceanic
12:50AM 41.8145 159.4376 246° West 413 475 40,000  Level FlightAware Transoceanic
12:51AM 41.7677 159.2975 246° West 413 475 40,000  Level FlightAware Transoceanic
12:52AM 41.7208 159.1577 246° West 413 475 40,000  Level FlightAware Transoceanic
12:53AM 41.6737 159.0180 246° West 413 475 40,000  Level FlightAware Transoceanic
12:54AM 41.6264 158.8785 246° West 413 475 40,000  Level FlightAware Transoceanic
12:55AM 41.5789 158.7393 245° Southwest 413 475 40,000  Level FlightAware Transoceanic
12:56AM 41.5313 158.6002 245° Southwest 413 475 40,000  Level FlightAware Transoceanic
12:57AM 41.4835 158.4613 245° Southwest 413 475 40,000  Level FlightAware Transoceanic
12:58AM 41.4355 158.3227 245° Southwest 413 475 40,000  Level FlightAware Transoceanic
12:59AM 41.3873 158.1843 245° Southwest 413 475 40,000  Level FlightAware Transoceanic
01:00AM 41.3390 158.0460 245° Southwest 413 475 40,000  Level FlightAware Transoceanic
01:01AM 41.2906 157.9080 245° Southwest 413 475 40,000  Level FlightAware Transoceanic
01:02AM 41.2420 157.7702 245° Southwest 413 475 40,000  Level FlightAware Transoceanic
01:03AM 41.1931 157.6325 245° Southwest 413 475 40,000  Level FlightAware Transoceanic
01:04AM 41.1442 157.4951 245° Southwest 413 475 40,000  Level FlightAware Transoceanic
01:05AM 41.0951 157.3579 245° Southwest 413 475 40,000  Level FlightAware Transoceanic
01:06AM 41.0458 157.2209 244° Southwest 413 475 40,000  Level FlightAware Transoceanic
01:07AM 40.9963 157.0841 244° Southwest 413 475 40,000  Level FlightAware Transoceanic
01:08AM 40.9467 156.9475 244° Southwest 413 475 40,000  Level FlightAware Transoceanic
01:09AM 40.8970 156.8111 244° Southwest 413 475 40,000  Level FlightAware Transoceanic
01:10AM 40.8470 156.6749 244° Southwest 413 475 40,000  Level FlightAware Transoceanic
01:11AM 40.7969 156.5390 244° Southwest 413 475 40,000  Level FlightAware Transoceanic
01:12AM 40.7467 156.4032 244° Southwest 413 475 40,000  Level FlightAware Transoceanic
01:13AM 40.6963 156.2676 244° Southwest 413 475 40,000  Level FlightAware Transoceanic
01:14AM 40.6457 156.1322 244° Southwest 413 475 40,000  Level FlightAware Transoceanic
01:15AM 40.5950 155.9971 244° Southwest 413 475 40,000  Level FlightAware Transoceanic
01:16AM 40.5441 155.8621 244° Southwest 413 475 40,000  Level FlightAware Transoceanic
01:17AM 40.4931 155.7274 243° Southwest 413 475 40,000  Level FlightAware Transoceanic
01:18AM 40.4419 155.5929 243° Southwest 413 475 40,000  Level FlightAware Transoceanic
01:19AM 40.3905 155.4585 243° Southwest 413 475 40,000  Level FlightAware Transoceanic
01:20AM 40.3390 155.3244 243° Southwest 413 475 40,000  Level FlightAware Transoceanic
01:21AM 40.2874 155.1905 243° Southwest 413 475 40,000  Level FlightAware Transoceanic
01:22AM 40.2355 155.0567 243° Southwest 413 475 40,000  Level FlightAware Transoceanic
01:23AM 40.1836 154.9232 243° Southwest 413 475 40,000  Level FlightAware Transoceanic
01:24AM 40.1315 154.7899 243° Southwest 413 475 40,000  Level FlightAware Transoceanic
01:25AM 40.0792 154.6568 243° Southwest 413 475 40,000  Level FlightAware Transoceanic
01:26AM 40.0268 154.5239 243° Southwest 413 475 40,000  Level FlightAware Transoceanic
01:27AM 39.9742 154.3912 243° Southwest 413 475 40,000  Level FlightAware Transoceanic
01:28AM 39.9215 154.2587 243° Southwest 413 475 40,000  Level FlightAware Transoceanic
01:29AM 39.8686 154.1264 242° Southwest 413 475 40,000  Level FlightAware Transoceanic
01:30AM 39.8156 153.9943 242° Southwest 413 475 40,000  Level FlightAware Transoceanic
01:31AM 39.7624 153.8624 242° Southwest 413 475 40,000  Level FlightAware Transoceanic
01:32AM 39.7090 153.7308 242° Southwest 413 475 40,000  Level FlightAware Transoceanic
01:33AM 39.6556 153.5993 242° Southwest 413 475 40,000  Level FlightAware Transoceanic
01:34AM 39.6019 153.4680 242° Southwest 413 475 40,000  Level FlightAware Transoceanic
01:35AM 39.5482 153.3369 242° Southwest 413 475 40,000  Level FlightAware Transoceanic
01:36AM 39.4943 153.2061 242° Southwest 413 475 40,000  Level FlightAware Transoceanic
01:37AM 39.4402 153.0754 242° Southwest 413 475 40,000  Level FlightAware Transoceanic
01:38AM 39.3860 152.9450 242° Southwest 413 475 40,000  Level FlightAware Transoceanic
01:39AM 39.3316 152.8147 242° Southwest 413 475 40,000  Level FlightAware Transoceanic
01:40AM 39.2771 152.6846 242° Southwest 413 475 40,000  Level FlightAware Transoceanic
01:41AM 39.2225 152.5548 241° Southwest 413 475 40,000  Level FlightAware Transoceanic
01:42AM 39.1677 152.4252 241° Southwest 413 475 40,000  Level FlightAware Transoceanic
01:43AM 39.1128 152.2957 241° Southwest 413 475 40,000  Level FlightAware Transoceanic
01:44AM 39.0577 152.1665 241° Southwest 413 475 40,000  Level FlightAware Transoceanic
01:45AM 39.0025 152.0374 241° Southwest 413 475 40,000  Level FlightAware Transoceanic
01:46AM 38.9471 151.9086 241° Southwest 413 475 40,000  Level FlightAware Transoceanic
01:47AM 38.8916 151.7799 241° Southwest 413 475 40,000  Level FlightAware Transoceanic
01:48AM 38.8359 151.6515 241° Southwest 413 475 40,000  Level FlightAware Transoceanic
01:49AM 38.7802 151.5233 241° Southwest 413 475 40,000  Level FlightAware Transoceanic
01:50AM 38.7243 151.3952 241° Southwest 413 475 40,000  Level FlightAware Transoceanic
01:51AM 38.6682 151.2674 241° Southwest 413 475 40,000  Level FlightAware Transoceanic
01:52AM 38.6120 151.1398 241° Southwest 413 475 40,000  Level FlightAware Transoceanic
01:53AM 38.5556 151.0123 240° Southwest 413 475 40,000  Level FlightAware Transoceanic
01:54AM 38.4992 150.8851 240° Southwest 413 475 40,000  Level FlightAware Transoceanic
01:55AM 38.4426 150.7580 240° Southwest 413 475 40,000  Level FlightAware Transoceanic
01:56AM 38.3858 150.6312 240° Southwest 413 475 40,000  Level FlightAware Transoceanic
01:57AM 38.3289 150.5046 240° Southwest 413 475 40,000  Level FlightAware Transoceanic
01:58AM 38.2719 150.3781 240° Southwest 413 475 40,000  Level FlightAware Transoceanic
01:59AM 38.2147 150.2519 240° Southwest 413 475 40,000  Level FlightAware Transoceanic
02:00AM 38.1574 150.1258 240° Southwest 413 475 40,000  Level FlightAware Transoceanic
02:01AM 38.0968 149.9929 240° Southwest  Level FlightAware Approximate
02:02AM 38.0997 149.9836 269° West  Level FlightAware Approximate
02:03AM 38.0966 149.8300 269° West  Level FlightAware Approximate
02:04AM 38.0934 149.6765 269° West  Level FlightAware Approximate
02:05AM 38.0900 149.5229 268° West  Level FlightAware Approximate
02:06AM 38.0863 149.3694 268° West  Level FlightAware Approximate
02:07AM 38.0739 149.2180 250° West  Level FlightAware Approximate
02:08AM 38.0316 149.0742 250° West  Level FlightAware Approximate
02:09AM 37.9890 148.9306 249° West  Level FlightAware Approximate
02:10AM 37.9463 148.7872 249° West  Level FlightAware Approximate
02:11AM 37.9033 148.6439 249° West  Level FlightAware Approximate
02:12AM 37.8603 148.5008 249° West  Level FlightAware Approximate
02:13AM 37.8170 148.3578 249° West  Level FlightAware Approximate
02:14AM 37.7736 148.2151 249° West  Level FlightAware Approximate
02:15AM 37.7300 148.0724 249° West  Level FlightAware Approximate
02:16AM 37.6862 147.9300 249° West  Level FlightAware Approximate
02:17AM 37.6260 147.7992 233° Southwest  Level FlightAware Approximate
02:18AM 37.5527 147.6779 233° Southwest  Level FlightAware Approximate
02:19AM 37.4793 147.5568 233° Southwest  Level FlightAware Approximate
02:20AM 37.4058 147.4359 233° Southwest  Level FlightAware Approximate
02:21AM 37.3321 147.3153 232° Southwest  Level FlightAware Approximate
02:22AM 37.2584 147.1949 232° Southwest  Level FlightAware Approximate
02:23AM 37.1844 147.0748 232° Southwest  Level FlightAware Approximate
02:24AM 37.1104 146.9549 232° Southwest  Level FlightAware Approximate
02:25AM 37.0363 146.8352 232° Southwest  Level FlightAware Approximate
02:26AM 36.9614 146.7163 231° Southwest  Level FlightAware Approximate
02:27AM 36.8849 146.5992 231° Southwest  Level FlightAware Approximate
02:28AM 36.8084 146.4823 231° Southwest  Level FlightAware Approximate
02:29AM 36.7317 146.3656 231° Southwest  Level FlightAware Approximate
02:30AM 36.6551 146.2495 231° Southwest  Level FlightAware Approximate
02:31AM 36.5784 146.1336 231° Southwest  Level FlightAware Approximate
02:32AM 36.5016 146.0180 230° Southwest  Level FlightAware Approximate
02:33AM 36.4247 145.9026 230° Southwest  Level FlightAware Approximate
02:34AM 36.3476 145.7874 230° Southwest  Level FlightAware Approximate
02:35AM 36.2705 145.6724 230° Southwest  Level FlightAware Approximate
02:36AM 36.1996 145.5515 234° Southwest  Level FlightAware Approximate
02:37AM 36.1430 145.4230 259° West  Level FlightAware Approximate
02:38AM 36.1195 145.2766 259° West  Level FlightAware Approximate
02:39AM 36.0958 145.1301 259° West  Level FlightAware Approximate
02:40AM 36.0719 144.9836 259° West  Level FlightAware Approximate
02:41AM 36.0479 144.8373 259° West  Level FlightAware Approximate
02:41AM 36.0830 145.0730 258° West 410 472 41,000  Level FlightAware
02:42AM 36.0236 144.6910 258° West  Level FlightAware Approximate
02:42AM 36.0720 144.9990 260° West 410 472 41,000  Level FlightAware
02:42AM 36.0570 144.9040 259° West 410 472 41,000  Level FlightAware
02:43AM 36.0460 144.8240 260° West 410 472 41,000  Level FlightAware
02:44AM 36.0300 144.7280 258° West 410 472 41,000  Level FlightAware
02:44AM 36.0170 144.6430 259° West 409 471 41,000  Level FlightAware
02:45AM 36.0040 144.5590 259° West 412 474 41,000  Level FlightAware
02:46AM 35.9880 144.4620 259° West 413 475 41,000  Level FlightAware
02:46AM 35.9770 144.3930 259° West 413 475 41,000  Level FlightAware
02:47AM 35.9660 144.3220 259° West 413 475 41,000  Level FlightAware
02:47AM 35.9550 144.2500 259° West 413 475 41,000  Level FlightAware
02:48AM 35.9440 144.1790 259° West 413 475 41,000  Level FlightAware
02:49AM 35.9320 144.1080 258° West 413 475 41,000  Level FlightAware
02:49AM 35.9210 144.0370 259° West 413 475 41,000  Level FlightAware
02:50AM 35.9100 143.9660 259° West 413 475 41,000  Level FlightAware
02:50AM 35.8990 143.8950 259° West 413 475 41,000  Level FlightAware
02:51AM 35.8880 143.8240 259° West 413 475 41,000  Level FlightAware
02:52AM 35.8770 143.7540 259° West 413 475 41,000  Level FlightAware
02:52AM 35.8650 143.6830 258° West 413 475 41,000  Level FlightAware
02:53AM 35.8540 143.6120 259° West 413 475 41,000  Level FlightAware
02:53AM 35.8430 143.5410 259° West 413 475 41,000  Level FlightAware
02:54AM 35.8320 143.4700 259° West 413 475 41,000  Level FlightAware
02:55AM 35.8210 143.3990 259° West 413 475 41,000 -8,100 Level FlightAware
02:55AM 36.0230 143.0840 308° West 30,000 -14,160 Descending FlightAware
02:55AM 36.0340 143.0490 291° West 413 475 29,700 -960 Descending FlightAware
02:56AM 36.0590 142.9700 291° West 394 453 29,200 -1,200 Descending FlightAware
02:56AM 36.0780 142.9080 291° West 376 433 28,400 -1,200 Descending FlightAware
02:57AM 36.0690 142.8480 260° West 347 399 28,000 -960 Descending FlightAware
02:58AM 36.0420 142.7870 241° Southwest 346 398 27,400 -780 Descending FlightAware
02:58AM 36.0100 142.7150 241° Southwest 344 396 27,000 -1,140 Descending FlightAware
02:59AM 35.9800 142.6490 241° Southwest 339 390 25,900 -1,140 Descending FlightAware
03:00AM 35.9520 142.5860 241° Southwest 339 390 25,600 -240 Descending FlightAware
03:00AM 35.9290 142.5340 241° Southwest 339 390 25,600  Level FlightAware
03:01AM 35.9050 142.4820 240° Southwest 339 390 25,600  Level FlightAware
03:01AM 35.8820 142.4300 241° Southwest 339 390 25,600 -1,800 Level FlightAware
03:02AM 35.8310 142.3180 241° Southwest 328 377 23,000 -1,800 Descending FlightAware
03:03AM 35.8080 142.2660 241° Southwest 328 377 23,000 -720 Level FlightAware
03:04AM 35.7760 142.1960 241° Southwest 303 349 22,100 -1,260 Descending FlightAware
03:04AM 35.7510 142.1420 240° Southwest 304 350 21,400 -1,200 Descending FlightAware
03:05AM 35.7240 142.0810 241° Southwest 307 353 20,600 -1,320 Descending FlightAware
03:05AM 35.7050 142.0390 241° Southwest 305 351 20,000 -1,380 Descending FlightAware
03:06AM 35.6670 141.9550 241° Southwest 303 349 18,800 -1,260 Descending FlightAware
03:07AM 35.6450 141.9080 240° Southwest 292 336 18,100 -1,020 Descending FlightAware
03:07AM 35.6350 141.8780 248° West 294 338 17,900 -720 Descending FlightAware
03:07AM 35.6360 141.8510 273° West 303 349 17,700 -780 Descending FlightAware
03:07AM 35.6390 141.8370 285° West 310 357 17,600 -960 Descending FlightAware
03:08AM 35.6530 141.7730 285° West 308 354 17,000 -1,080 Descending FlightAware
03:09AM 35.6710 141.6880 285° West 316 364 16,100 -780 Descending FlightAware
03:09AM 35.6850 141.6270 286° West 334 384 16,000 -120 Descending FlightAware
03:10AM 35.7020 141.5510 285° West 336 387 16,000  Level FlightAware
03:11AM 35.7130 141.5000 285° West 332 382 16,000 -420 Level FlightAware
03:11AM 35.7340 141.4030 285° West 320 368 15,500 -900 Descending FlightAware
03:12AM 35.7470 141.3410 285° West 325 374 14,700 -1,440 Descending FlightAware
03:13AM 35.7580 141.2910 285° West 330 380 14,000 -1,320 Descending FlightAware
03:13AM 35.7710 141.2300 285° West 332 382 13,300 -1,440 Descending FlightAware
03:14AM 35.7870 141.1550 285° West 327 376 12,300 -1,500 Descending FlightAware
03:14AM 35.8010 141.0920 285° West 320 368 11,500 -1,440 Descending FlightAware
03:15AM 35.8150 141.0250 284° West 314 361 10,500 -1,380 Descending FlightAware
03:15AM 35.8090 140.9770 261° West 298 343 10,000 -1,320 Descending FlightAware
03:16AM 35.8030 140.9640 240° Southwest 295 339 9,800 -1,020 Descending FlightAware
03:16AM 35.7890 140.9350 239° Southwest 289 333 9,500 -960 Descending FlightAware
03:16AM 35.7710 140.8990 238° Southwest 288 331 9,100 -1,020 Descending FlightAware
03:17AM 35.7630 140.8880 228° Southwest 277 319 8,900 -1,440 Descending FlightAware
03:17AM 35.7370 140.8620 219° Southwest 283 326 8,300 -1,140 Descending FlightAware
03:17AM 35.7160 140.8430 216° Southwest 287 330 8,100 -480 Descending FlightAware
03:18AM 35.6950 140.8230 218° Southwest 273 314 8,000 -180 Descending FlightAware
03:18AM 35.6790 140.8080 217° Southwest 265 305 8,000  Level FlightAware
03:18AM 35.6620 140.7910 219° Southwest 250 288 8,000 120 Level FlightAware
03:18AM 35.6480 140.7770 219° Southwest 235 270 8,100  Climbing FlightAware
03:19AM 35.6300 140.7600 218° Southwest 234 269 8,000 -480 Descending FlightAware
03:19AM 35.6140 140.7440 219° Southwest 228 262 7,800 -720 Descending FlightAware
03:19AM 35.6030 140.7330 219° Southwest 233 268 7,600 -840 Descending FlightAware
03:20AM 35.5860 140.7160 219° Southwest 231 266 7,300 -780 Descending FlightAware
03:20AM 35.5670 140.6970 219° Southwest 234 269 7,100 -480 Descending FlightAware
03:20AM 35.5510 140.6810 219° Southwest 234 269 7,000 -300 Descending FlightAware
03:21AM 35.5380 140.6630 228° Southwest 242 278 6,900 -600 Descending FlightAware
03:21AM 35.5270 140.6310 247° West 242 278 6,600 -780 Descending FlightAware
03:21AM 35.5220 140.6170 246° West 238 274 6,500 -720 Descending FlightAware
03:22AM 35.5130 140.5860 250° West 232 267 6,200 -900 Descending FlightAware
03:22AM 35.5130 140.5810 270° West 233 268 6,100 -1,020 Descending FlightAware
03:22AM 35.5190 140.5560 286° West 234 269 5,800 -960 Descending FlightAware
03:22AM 35.5230 140.5510 315° West 227 261 5,700 -1,200 Descending FlightAware
03:22AM 35.5320 140.5430 324° Northwest 225 259 5,500 -1,260 Descending FlightAware
03:23AM 35.5500 140.5290 328° Northwest 225 259 5,100 -1,200 Descending FlightAware
03:23AM 35.5620 140.5210 332° Northwest 220 253 4,800 -1,560 Descending FlightAware
03:23AM 35.5820 140.5070 330° Northwest 212 244 4,200 -1,380 Descending FlightAware
03:24AM 35.5980 140.4950 329° Northwest 206 237 3,900 -1,200 Descending FlightAware
03:24AM 35.6140 140.4840 331° Northwest 205 236 3,400 -1,620 Descending FlightAware
03:24AM 35.6290 140.4730 329° Northwest 185 213 2,900 -1,680 Descending FlightAware
03:25AM 35.6430 140.4630 330° Northwest 179 206 2,400 -1,200 Descending FlightAware
03:25AM 35.6540 140.4550 329° Northwest 168 193 2,200 -840 Descending FlightAware
03:25AM 35.6670 140.4460 331° Northwest 153 176 1,900 -780 Descending FlightAware
03:25AM 35.6790 140.4370 329° Northwest 142 163 1,700 -780 Descending FlightAware
03:26AM 35.6910 140.4290 332° Northwest 139 160 1,400 -840 Descending FlightAware
03:26AM 35.6990 140.4230 329° Northwest 138 159 1,200 -720 Descending FlightAware
03:26AM 35.7100 140.4150 329° Northwest 133 153 1,000 -780 Descending FlightAware
03:27AM 35.7160 140.4100 326° Northwest 132 152 800 -720 Descending FlightAware
03:27AM 35.7290 140.4010 331° Northwest 134 154 600 -720 Descending FlightAware
03:27AM 35.7360 140.3960 330° Northwest 136 157 400 -360 Descending FlightAware
03:28AM 35.7540 140.3830 330° Northwest 138 159 300 -180 Descending FlightAware